sensor_id;sensor_type;location;lat;lon;timestamp;P1;durP1;ratioP1;P2;durP2;ratioP2
55633;SDS011;41504;53.162;6.788;2023-04-25T00:00:27;15.98;;;4.45;;
55633;SDS011;41504;53.162;6.788;2023-04-25T00:02:52;23.55;;;4.78;;
55633;SDS011;41504;53.162;6.788;2023-04-25T00:05:18;14.10;;;4.28;;
55633;SDS011;41504;53.162;6.788;2023-04-25T00:07:44;17.50;;;4.40;;
55633;SDS011;41504;53.162;6.788;2023-04-25T00:10:11;14.88;;;4.70;;
55633;SDS011;41504;53.162;6.788;2023-04-25T00:12:37;16.23;;;4.53;;
55633;SDS011;41504;53.162;6.788;2023-04-25T00:15:04;17.60;;;4.43;;
55633;SDS011;41504;53.162;6.788;2023-04-25T00:17:30;21.48;;;5.32;;
55633;SDS011;41504;53.162;6.788;2023-04-25T00:19:56;18.33;;;5.20;;
55633;SDS011;41504;53.162;6.788;2023-04-25T00:22:23;18.15;;;4.75;;
55633;SDS011;41504;53.162;6.788;2023-04-25T00:24:48;21.75;;;4.57;;
55633;SDS011;41504;53.162;6.788;2023-04-25T00:27:15;18.35;;;4.60;;
55633;SDS011;41504;53.162;6.788;2023-04-25T00:29:40;21.55;;;5.40;;
55633;SDS011;41504;53.162;6.788;2023-04-25T00:32:06;15.50;;;4.35;;
55633;SDS011;41504;53.162;6.788;2023-04-25T00:34:32;16.73;;;3.90;;
55633;SDS011;41504;53.162;6.788;2023-04-25T00:36:57;18.25;;;4.05;;
55633;SDS011;41504;53.162;6.788;2023-04-25T00:39:26;15.98;;;4.30;;
55633;SDS011;41504;53.162;6.788;2023-04-25T00:41:52;12.85;;;3.97;;
55633;SDS011;41504;53.162;6.788;2023-04-25T00:44:19;14.73;;;4.25;;
55633;SDS011;41504;53.162;6.788;2023-04-25T00:46:46;15.73;;;4.22;;
55633;SDS011;41504;53.162;6.788;2023-04-25T00:49:13;16.38;;;3.65;;
55633;SDS011;41504;53.162;6.788;2023-04-25T00:51:41;13.40;;;3.28;;
55633;SDS011;41504;53.162;6.788;2023-04-25T00:54:07;13.20;;;3.47;;
55633;SDS011;41504;53.162;6.788;2023-04-25T00:56:32;10.77;;;2.90;;
55633;SDS011;41504;53.162;6.788;2023-04-25T00:59:01;15.35;;;3.25;;
55633;SDS011;41504;53.162;6.788;2023-04-25T01:01:27;11.75;;;3.47;;
55633;SDS011;41504;53.162;6.788;2023-04-25T01:03:53;10.05;;;3.20;;
55633;SDS011;41504;53.162;6.788;2023-04-25T01:06:19;11.57;;;3.88;;
55633;SDS011;41504;53.162;6.788;2023-04-25T01:08:45;17.70;;;3.90;;
55633;SDS011;41504;53.162;6.788;2023-04-25T01:11:11;13.57;;;3.20;;
55633;SDS011;41504;53.162;6.788;2023-04-25T01:13:36;11.10;;;3.17;;
55633;SDS011;41504;53.162;6.788;2023-04-25T01:16:02;15.48;;;3.22;;
55633;SDS011;41504;53.162;6.788;2023-04-25T01:18:28;14.80;;;3.35;;
55633;SDS011;41504;53.162;6.788;2023-04-25T01:20:54;15.25;;;3.50;;
55633;SDS011;41504;53.162;6.788;2023-04-25T01:23:21;13.57;;;3.08;;
55633;SDS011;41504;53.162;6.788;2023-04-25T01:25:50;15.45;;;3.55;;
55633;SDS011;41504;53.162;6.788;2023-04-25T01:28:16;11.13;;;3.30;;
55633;SDS011;41504;53.162;6.788;2023-04-25T01:30:42;13.90;;;3.55;;
55633;SDS011;41504;53.162;6.788;2023-04-25T01:33:08;14.05;;;3.20;;
55633;SDS011;41504;53.162;6.788;2023-04-25T01:35:34;16.30;;;4.20;;
55633;SDS011;41504;53.162;6.788;2023-04-25T01:38:00;13.35;;;3.45;;
55633;SDS011;41504;53.162;6.788;2023-04-25T01:40:25;15.20;;;3.47;;
55633;SDS011;41504;53.162;6.788;2023-04-25T01:42:53;14.13;;;3.25;;
55633;SDS011;41504;53.162;6.788;2023-04-25T01:45:19;14.38;;;3.30;;
55633;SDS011;41504;53.162;6.788;2023-04-25T01:47:45;10.27;;;2.85;;
55633;SDS011;41504;53.162;6.788;2023-04-25T01:50:15;12.95;;;2.83;;
55633;SDS011;41504;53.162;6.788;2023-04-25T01:52:42;13.00;;;3.22;;
55633;SDS011;41504;53.162;6.788;2023-04-25T01:55:08;12.23;;;3.20;;
55633;SDS011;41504;53.162;6.788;2023-04-25T01:57:34;17.25;;;3.03;;
55633;SDS011;41504;53.162;6.788;2023-04-25T02:00:01;12.20;;;3.17;;
55633;SDS011;41504;53.162;6.788;2023-04-25T02:02:29;13.45;;;3.40;;
55633;SDS011;41504;53.162;6.788;2023-04-25T02:04:55;15.27;;;3.03;;
55633;SDS011;41504;53.162;6.788;2023-04-25T02:07:21;11.68;;;3.50;;
55633;SDS011;41504;53.162;6.788;2023-04-25T02:09:47;12.23;;;3.40;;
55633;SDS011;41504;53.162;6.788;2023-04-25T02:12:13;11.00;;;3.25;;
55633;SDS011;41504;53.162;6.788;2023-04-25T02:14:38;13.40;;;3.10;;
55633;SDS011;41504;53.162;6.788;2023-04-25T02:17:04;14.65;;;3.60;;
55633;SDS011;41504;53.162;6.788;2023-04-25T02:19:30;18.70;;;3.70;;
55633;SDS011;41504;53.162;6.788;2023-04-25T02:21:56;14.88;;;3.72;;
55633;SDS011;41504;53.162;6.788;2023-04-25T02:24:23;16.08;;;4.03;;
55633;SDS011;41504;53.162;6.788;2023-04-25T02:26:48;19.13;;;3.53;;
55633;SDS011;41504;53.162;6.788;2023-04-25T02:29:14;14.95;;;3.28;;
55633;SDS011;41504;53.162;6.788;2023-04-25T02:31:40;16.65;;;3.20;;
55633;SDS011;41504;53.162;6.788;2023-04-25T02:34:06;13.57;;;3.33;;
55633;SDS011;41504;53.162;6.788;2023-04-25T02:36:32;16.00;;;3.72;;
55633;SDS011;41504;53.162;6.788;2023-04-25T02:39:00;12.95;;;3.47;;
55633;SDS011;41504;53.162;6.788;2023-04-25T02:41:27;17.65;;;3.55;;
55633;SDS011;41504;53.162;6.788;2023-04-25T02:43:53;19.85;;;3.95;;
55633;SDS011;41504;53.162;6.788;2023-04-25T02:46:19;13.25;;;3.15;;
55633;SDS011;41504;53.162;6.788;2023-04-25T02:48:45;15.27;;;3.40;;
55633;SDS011;41504;53.162;6.788;2023-04-25T02:51:11;14.80;;;3.63;;
55633;SDS011;41504;53.162;6.788;2023-04-25T02:53:37;15.20;;;3.22;;
55633;SDS011;41504;53.162;6.788;2023-04-25T02:56:08;16.20;;;3.85;;
55633;SDS011;41504;53.162;6.788;2023-04-25T02:58:34;12.02;;;3.28;;
55633;SDS011;41504;53.162;6.788;2023-04-25T03:00:59;12.07;;;3.20;;
55633;SDS011;41504;53.162;6.788;2023-04-25T03:03:25;14.25;;;3.30;;
55633;SDS011;41504;53.162;6.788;2023-04-25T03:05:51;11.68;;;3.22;;
55633;SDS011;41504;53.162;6.788;2023-04-25T03:08:17;14.40;;;2.80;;
55633;SDS011;41504;53.162;6.788;2023-04-25T03:10:43;10.43;;;3.10;;
55633;SDS011;41504;53.162;6.788;2023-04-25T03:13:09;9.75;;;2.90;;
55633;SDS011;41504;53.162;6.788;2023-04-25T03:15:36;14.50;;;3.15;;
55633;SDS011;41504;53.162;6.788;2023-04-25T03:18:02;14.60;;;3.28;;
55633;SDS011;41504;53.162;6.788;2023-04-25T03:20:28;17.88;;;3.60;;
55633;SDS011;41504;53.162;6.788;2023-04-25T03:22:54;13.02;;;3.08;;
55633;SDS011;41504;53.162;6.788;2023-04-25T03:25:20;10.02;;;2.85;;
55633;SDS011;41504;53.162;6.788;2023-04-25T03:27:48;11.70;;;3.60;;
55633;SDS011;41504;53.162;6.788;2023-04-25T03:30:14;11.75;;;2.67;;
55633;SDS011;41504;53.162;6.788;2023-04-25T03:32:40;13.63;;;3.17;;
55633;SDS011;41504;53.162;6.788;2023-04-25T03:35:06;14.63;;;3.03;;
55633;SDS011;41504;53.162;6.788;2023-04-25T03:37:32;14.35;;;3.40;;
55633;SDS011;41504;53.162;6.788;2023-04-25T03:39:57;15.10;;;3.38;;
55633;SDS011;41504;53.162;6.788;2023-04-25T03:42:23;13.15;;;3.05;;
55633;SDS011;41504;53.162;6.788;2023-04-25T03:44:49;10.23;;;2.45;;
55633;SDS011;41504;53.162;6.788;2023-04-25T03:47:16;16.55;;;3.28;;
55633;SDS011;41504;53.162;6.788;2023-04-25T03:49:42;13.65;;;2.80;;
55633;SDS011;41504;53.162;6.788;2023-04-25T03:52:08;11.93;;;3.17;;
55633;SDS011;41504;53.162;6.788;2023-04-25T03:54:33;12.35;;;2.80;;
55633;SDS011;41504;53.162;6.788;2023-04-25T03:56:59;11.38;;;2.50;;
55633;SDS011;41504;53.162;6.788;2023-04-25T03:59:25;11.85;;;2.85;;
55633;SDS011;41504;53.162;6.788;2023-04-25T04:01:51;11.98;;;3.00;;
55633;SDS011;41504;53.162;6.788;2023-04-25T04:04:17;13.70;;;3.33;;
55633;SDS011;41504;53.162;6.788;2023-04-25T04:06:43;11.63;;;2.90;;
55633;SDS011;41504;53.162;6.788;2023-04-25T04:09:09;12.93;;;3.28;;
55633;SDS011;41504;53.162;6.788;2023-04-25T04:11:36;10.43;;;2.58;;
55633;SDS011;41504;53.162;6.788;2023-04-25T04:14:04;10.68;;;2.58;;
55633;SDS011;41504;53.162;6.788;2023-04-25T04:16:31;13.27;;;3.20;;
55633;SDS011;41504;53.162;6.788;2023-04-25T04:18:57;13.30;;;2.92;;
55633;SDS011;41504;53.162;6.788;2023-04-25T04:21:22;15.57;;;2.95;;
55633;SDS011;41504;53.162;6.788;2023-04-25T04:23:48;14.30;;;3.15;;
55633;SDS011;41504;53.162;6.788;2023-04-25T04:26:14;14.75;;;3.00;;
55633;SDS011;41504;53.162;6.788;2023-04-25T04:28:41;10.45;;;2.70;;
55633;SDS011;41504;53.162;6.788;2023-04-25T04:31:09;14.82;;;3.20;;
55633;SDS011;41504;53.162;6.788;2023-04-25T04:33:35;13.60;;;2.88;;
55633;SDS011;41504;53.162;6.788;2023-04-25T04:36:02;13.20;;;3.17;;
55633;SDS011;41504;53.162;6.788;2023-04-25T04:38:30;11.63;;;2.75;;
55633;SDS011;41504;53.162;6.788;2023-04-25T04:40:57;11.70;;;3.03;;
55633;SDS011;41504;53.162;6.788;2023-04-25T04:43:22;13.13;;;3.22;;
55633;SDS011;41504;53.162;6.788;2023-04-25T04:45:48;15.48;;;3.10;;
55633;SDS011;41504;53.162;6.788;2023-04-25T04:48:15;15.02;;;3.60;;
55633;SDS011;41504;53.162;6.788;2023-04-25T04:50:44;12.40;;;2.83;;
55633;SDS011;41504;53.162;6.788;2023-04-25T04:53:10;15.55;;;3.00;;
55633;SDS011;41504;53.162;6.788;2023-04-25T04:55:37;13.00;;;3.45;;
55633;SDS011;41504;53.162;6.788;2023-04-25T04:58:02;13.20;;;3.10;;
55633;SDS011;41504;53.162;6.788;2023-04-25T05:00:28;12.75;;;3.00;;
55633;SDS011;41504;53.162;6.788;2023-04-25T05:02:54;8.48;;;2.45;;
55633;SDS011;41504;53.162;6.788;2023-04-25T05:05:21;18.58;;;3.28;;
55633;SDS011;41504;53.162;6.788;2023-04-25T05:07:47;12.57;;;2.95;;
55633;SDS011;41504;53.162;6.788;2023-04-25T05:10:12;16.20;;;3.40;;
55633;SDS011;41504;53.162;6.788;2023-04-25T05:12:38;10.63;;;3.10;;
55633;SDS011;41504;53.162;6.788;2023-04-25T05:15:04;12.82;;;2.88;;
55633;SDS011;41504;53.162;6.788;2023-04-25T05:17:30;13.00;;;2.83;;
55633;SDS011;41504;53.162;6.788;2023-04-25T05:19:57;11.35;;;3.25;;
55633;SDS011;41504;53.162;6.788;2023-04-25T05:22:23;15.63;;;3.10;;
55633;SDS011;41504;53.162;6.788;2023-04-25T05:24:49;11.95;;;3.03;;
55633;SDS011;41504;53.162;6.788;2023-04-25T05:27:16;7.95;;;2.35;;
55633;SDS011;41504;53.162;6.788;2023-04-25T05:29:43;7.05;;;1.92;;
55633;SDS011;41504;53.162;6.788;2023-04-25T05:32:09;8.52;;;2.22;;
55633;SDS011;41504;53.162;6.788;2023-04-25T05:34:35;8.63;;;2.10;;
55633;SDS011;41504;53.162;6.788;2023-04-25T05:37:01;7.63;;;2.00;;
55633;SDS011;41504;53.162;6.788;2023-04-25T05:39:28;9.00;;;1.92;;
55633;SDS011;41504;53.162;6.788;2023-04-25T05:41:54;9.15;;;2.30;;
55633;SDS011;41504;53.162;6.788;2023-04-25T05:44:19;7.80;;;2.03;;
55633;SDS011;41504;53.162;6.788;2023-04-25T05:46:45;9.55;;;2.60;;
55633;SDS011;41504;53.162;6.788;2023-04-25T05:49:11;8.10;;;2.22;;
55633;SDS011;41504;53.162;6.788;2023-04-25T05:51:37;8.27;;;2.10;;
55633;SDS011;41504;53.162;6.788;2023-04-25T05:54:03;6.40;;;2.00;;
55633;SDS011;41504;53.162;6.788;2023-04-25T05:56:28;7.95;;;2.30;;
55633;SDS011;41504;53.162;6.788;2023-04-25T05:58:54;7.82;;;2.60;;
55633;SDS011;41504;53.162;6.788;2023-04-25T06:01:21;8.00;;;1.90;;
55633;SDS011;41504;53.162;6.788;2023-04-25T06:03:48;7.18;;;2.40;;
55633;SDS011;41504;53.162;6.788;2023-04-25T06:06:13;10.07;;;2.50;;
55633;SDS011;41504;53.162;6.788;2023-04-25T06:08:39;9.20;;;2.33;;
55633;SDS011;41504;53.162;6.788;2023-04-25T06:11:06;10.43;;;2.17;;
55633;SDS011;41504;53.162;6.788;2023-04-25T06:13:31;9.27;;;2.05;;
55633;SDS011;41504;53.162;6.788;2023-04-25T06:15:57;8.52;;;2.15;;
55633;SDS011;41504;53.162;6.788;2023-04-25T06:18:23;9.00;;;2.15;;
55633;SDS011;41504;53.162;6.788;2023-04-25T06:20:49;10.38;;;2.60;;
55633;SDS011;41504;53.162;6.788;2023-04-25T06:23:14;8.98;;;2.30;;
55633;SDS011;41504;53.162;6.788;2023-04-25T06:25:40;8.13;;;2.47;;
55633;SDS011;41504;53.162;6.788;2023-04-25T06:28:08;7.93;;;2.72;;
55633;SDS011;41504;53.162;6.788;2023-04-25T06:30:34;13.10;;;2.78;;
55633;SDS011;41504;53.162;6.788;2023-04-25T06:33:00;9.45;;;2.17;;
55633;SDS011;41504;53.162;6.788;2023-04-25T06:35:25;8.57;;;2.08;;
55633;SDS011;41504;53.162;6.788;2023-04-25T06:37:51;10.15;;;2.17;;
55633;SDS011;41504;53.162;6.788;2023-04-25T06:40:17;11.73;;;2.47;;
55633;SDS011;41504;53.162;6.788;2023-04-25T06:42:43;8.07;;;2.42;;
55633;SDS011;41504;53.162;6.788;2023-04-25T06:45:08;7.35;;;1.83;;
55633;SDS011;41504;53.162;6.788;2023-04-25T06:47:34;5.72;;;1.92;;
55633;SDS011;41504;53.162;6.788;2023-04-25T06:50:00;7.40;;;2.08;;
55633;SDS011;41504;53.162;6.788;2023-04-25T06:52:26;6.00;;;2.28;;
55633;SDS011;41504;53.162;6.788;2023-04-25T06:54:51;9.02;;;2.28;;
55633;SDS011;41504;53.162;6.788;2023-04-25T06:57:17;9.45;;;1.60;;
55633;SDS011;41504;53.162;6.788;2023-04-25T06:59:43;11.38;;;2.63;;
55633;SDS011;41504;53.162;6.788;2023-04-25T07:02:09;7.45;;;1.77;;
55633;SDS011;41504;53.162;6.788;2023-04-25T07:04:35;12.18;;;2.33;;
55633;SDS011;41504;53.162;6.788;2023-04-25T07:07:01;11.55;;;2.35;;
55633;SDS011;41504;53.162;6.788;2023-04-25T07:09:28;11.85;;;2.20;;
55633;SDS011;41504;53.162;6.788;2023-04-25T07:11:54;6.80;;;1.90;;
55633;SDS011;41504;53.162;6.788;2023-04-25T07:14:21;10.07;;;2.38;;
55633;SDS011;41504;53.162;6.788;2023-04-25T07:16:47;8.63;;;1.98;;
55633;SDS011;41504;53.162;6.788;2023-04-25T07:19:13;8.07;;;1.88;;
55633;SDS011;41504;53.162;6.788;2023-04-25T07:21:39;6.38;;;1.60;;
55633;SDS011;41504;53.162;6.788;2023-04-25T07:24:05;9.43;;;2.20;;
55633;SDS011;41504;53.162;6.788;2023-04-25T07:26:31;8.18;;;2.00;;
55633;SDS011;41504;53.162;6.788;2023-04-25T07:28:56;11.32;;;2.40;;
55633;SDS011;41504;53.162;6.788;2023-04-25T07:31:22;8.65;;;2.10;;
55633;SDS011;41504;53.162;6.788;2023-04-25T07:33:48;9.95;;;2.33;;
55633;SDS011;41504;53.162;6.788;2023-04-25T07:36:14;9.00;;;1.88;;
55633;SDS011;41504;53.162;6.788;2023-04-25T07:38:40;10.73;;;2.00;;
55633;SDS011;41504;53.162;6.788;2023-04-25T07:41:06;7.50;;;1.98;;
55633;SDS011;41504;53.162;6.788;2023-04-25T07:43:32;9.02;;;2.45;;
55633;SDS011;41504;53.162;6.788;2023-04-25T07:45:57;9.52;;;2.20;;
55633;SDS011;41504;53.162;6.788;2023-04-25T07:48:23;9.45;;;2.03;;
55633;SDS011;41504;53.162;6.788;2023-04-25T07:50:49;11.70;;;2.35;;
55633;SDS011;41504;53.162;6.788;2023-04-25T07:53:15;11.48;;;2.13;;
55633;SDS011;41504;53.162;6.788;2023-04-25T07:55:43;7.88;;;1.88;;
55633;SDS011;41504;53.162;6.788;2023-04-25T07:58:09;8.77;;;1.90;;
55633;SDS011;41504;53.162;6.788;2023-04-25T08:00:36;6.88;;;1.65;;
55633;SDS011;41504;53.162;6.788;2023-04-25T08:03:01;11.82;;;1.98;;
55633;SDS011;41504;53.162;6.788;2023-04-25T08:05:28;5.47;;;1.92;;
55633;SDS011;41504;53.162;6.788;2023-04-25T08:07:54;5.68;;;1.90;;
55633;SDS011;41504;53.162;6.788;2023-04-25T08:10:20;8.55;;;1.90;;
55633;SDS011;41504;53.162;6.788;2023-04-25T08:12:48;10.55;;;2.58;;
55633;SDS011;41504;53.162;6.788;2023-04-25T08:15:14;10.10;;;2.15;;
55633;SDS011;41504;53.162;6.788;2023-04-25T08:17:40;8.18;;;2.15;;
55633;SDS011;41504;53.162;6.788;2023-04-25T08:20:06;7.38;;;2.17;;
55633;SDS011;41504;53.162;6.788;2023-04-25T08:22:32;9.18;;;2.58;;
55633;SDS011;41504;53.162;6.788;2023-04-25T08:24:59;7.53;;;1.90;;
55633;SDS011;41504;53.162;6.788;2023-04-25T08:27:24;9.80;;;2.10;;
55633;SDS011;41504;53.162;6.788;2023-04-25T08:29:50;8.07;;;1.95;;
55633;SDS011;41504;53.162;6.788;2023-04-25T08:32:16;8.13;;;1.50;;
55633;SDS011;41504;53.162;6.788;2023-04-25T08:34:51;5.80;;;1.60;;
55633;SDS011;41504;53.162;6.788;2023-04-25T08:37:19;5.95;;;1.42;;
55633;SDS011;41504;53.162;6.788;2023-04-25T08:39:45;4.88;;;1.42;;
55633;SDS011;41504;53.162;6.788;2023-04-25T08:42:13;5.18;;;1.95;;
55633;SDS011;41504;53.162;6.788;2023-04-25T08:44:40;5.28;;;1.23;;
55633;SDS011;41504;53.162;6.788;2023-04-25T08:47:09;5.03;;;1.30;;
55633;SDS011;41504;53.162;6.788;2023-04-25T08:49:38;6.32;;;1.60;;
55633;SDS011;41504;53.162;6.788;2023-04-25T08:52:09;4.80;;;1.35;;
55633;SDS011;41504;53.162;6.788;2023-04-25T08:54:36;5.25;;;1.45;;
55633;SDS011;41504;53.162;6.788;2023-04-25T08:57:05;6.57;;;1.38;;
55633;SDS011;41504;53.162;6.788;2023-04-25T08:59:34;5.82;;;1.50;;
55633;SDS011;41504;53.162;6.788;2023-04-25T09:02:04;4.28;;;1.33;;
55633;SDS011;41504;53.162;6.788;2023-04-25T09:04:30;4.70;;;1.42;;
55633;SDS011;41504;53.162;6.788;2023-04-25T09:06:56;5.55;;;1.50;;
55633;SDS011;41504;53.162;6.788;2023-04-25T09:09:23;7.50;;;1.80;;
55633;SDS011;41504;53.162;6.788;2023-04-25T09:11:49;5.43;;;1.50;;
55633;SDS011;41504;53.162;6.788;2023-04-25T09:14:16;5.43;;;1.60;;
55633;SDS011;41504;53.162;6.788;2023-04-25T09:19:25;9.63;;;2.10;;
55633;SDS011;41504;53.162;6.788;2023-04-25T09:21:54;8.93;;;2.10;;
55633;SDS011;41504;53.162;6.788;2023-04-25T09:27:20;9.10;;;1.80;;
55633;SDS011;41504;53.162;6.788;2023-04-25T09:29:55;9.30;;;2.00;;
55633;SDS011;41504;53.162;6.788;2023-04-25T09:32:27;7.95;;;1.85;;
55633;SDS011;41504;53.162;6.788;2023-04-25T09:34:54;9.35;;;1.90;;
55633;SDS011;41504;53.162;6.788;2023-04-25T09:37:21;10.02;;;2.08;;
55633;SDS011;41504;53.162;6.788;2023-04-25T09:39:56;7.20;;;1.83;;
55633;SDS011;41504;53.162;6.788;2023-04-25T09:42:28;10.88;;;2.03;;
55633;SDS011;41504;53.162;6.788;2023-04-25T09:44:56;5.82;;;1.52;;
55633;SDS011;41504;53.162;6.788;2023-04-25T09:47:23;6.38;;;1.48;;
55633;SDS011;41504;53.162;6.788;2023-04-25T09:49:51;5.20;;;1.35;;
55633;SDS011;41504;53.162;6.788;2023-04-25T09:52:19;8.55;;;1.50;;
55633;SDS011;41504;53.162;6.788;2023-04-25T09:54:46;5.60;;;1.70;;
55633;SDS011;41504;53.162;6.788;2023-04-25T09:57:17;7.13;;;1.63;;
55633;SDS011;41504;53.162;6.788;2023-04-25T09:59:45;6.53;;;2.17;;
55633;SDS011;41504;53.162;6.788;2023-04-25T10:02:13;11.32;;;2.30;;
55633;SDS011;41504;53.162;6.788;2023-04-25T10:04:45;10.73;;;2.23;;
55633;SDS011;41504;53.162;6.788;2023-04-25T10:07:18;8.27;;;1.90;;
55633;SDS011;41504;53.162;6.788;2023-04-25T10:09:58;8.85;;;2.20;;
55633;SDS011;41504;53.162;6.788;2023-04-25T10:12:26;10.07;;;2.25;;
55633;SDS011;41504;53.162;6.788;2023-04-25T10:14:56;7.82;;;1.85;;
55633;SDS011;41504;53.162;6.788;2023-04-25T10:17:23;12.75;;;2.15;;
55633;SDS011;41504;53.162;6.788;2023-04-25T10:19:56;8.05;;;1.77;;
55633;SDS011;41504;53.162;6.788;2023-04-25T10:22:29;10.20;;;2.42;;
55633;SDS011;41504;53.162;6.788;2023-04-25T10:24:59;8.55;;;2.10;;
55633;SDS011;41504;53.162;6.788;2023-04-25T10:27:31;6.22;;;1.90;;
55633;SDS011;41504;53.162;6.788;2023-04-25T10:30:01;5.80;;;1.65;;
55633;SDS011;41504;53.162;6.788;2023-04-25T10:32:32;5.93;;;1.58;;
55633;SDS011;41504;53.162;6.788;2023-04-25T10:35:09;6.65;;;1.58;;
55633;SDS011;41504;53.162;6.788;2023-04-25T10:37:36;5.07;;;1.38;;
55633;SDS011;41504;53.162;6.788;2023-04-25T10:40:09;5.80;;;1.45;;
55633;SDS011;41504;53.162;6.788;2023-04-25T10:45:01;6.85;;;1.75;;
55633;SDS011;41504;53.162;6.788;2023-04-25T10:47:36;6.00;;;2.08;;
55633;SDS011;41504;53.162;6.788;2023-04-25T10:50:14;7.90;;;1.80;;
55633;SDS011;41504;53.162;6.788;2023-04-25T10:52:42;7.38;;;2.00;;
55633;SDS011;41504;53.162;6.788;2023-04-25T10:55:09;7.95;;;2.47;;
55633;SDS011;41504;53.162;6.788;2023-04-25T10:57:36;6.70;;;2.10;;
55633;SDS011;41504;53.162;6.788;2023-04-25T11:00:14;8.65;;;1.88;;
55633;SDS011;41504;53.162;6.788;2023-04-25T11:02:45;9.23;;;2.47;;
55633;SDS011;41504;53.162;6.788;2023-04-25T11:07:57;8.55;;;2.40;;
55633;SDS011;41504;53.162;6.788;2023-04-25T11:10:33;8.25;;;2.17;;
55633;SDS011;41504;53.162;6.788;2023-04-25T11:13:02;8.80;;;2.15;;
55633;SDS011;41504;53.162;6.788;2023-04-25T11:15:31;6.78;;;1.83;;
55633;SDS011;41504;53.162;6.788;2023-04-25T11:17:57;6.60;;;1.80;;
55633;SDS011;41504;53.162;6.788;2023-04-25T11:20:24;4.95;;;1.60;;
55633;SDS011;41504;53.162;6.788;2023-04-25T11:22:53;7.45;;;1.60;;
55633;SDS011;41504;53.162;6.788;2023-04-25T11:25:26;9.15;;;2.20;;
55633;SDS011;41504;53.162;6.788;2023-04-25T11:27:53;9.02;;;2.17;;
55633;SDS011;41504;53.162;6.788;2023-04-25T11:30:24;5.85;;;1.67;;
55633;SDS011;41504;53.162;6.788;2023-04-25T11:32:51;9.73;;;2.38;;
55633;SDS011;41504;53.162;6.788;2023-04-25T11:35:17;5.68;;;1.83;;
55633;SDS011;41504;53.162;6.788;2023-04-25T11:37:47;6.65;;;1.52;;
55633;SDS011;41504;53.162;6.788;2023-04-25T11:40:13;8.48;;;1.95;;
55633;SDS011;41504;53.162;6.788;2023-04-25T11:42:42;4.88;;;1.40;;
55633;SDS011;41504;53.162;6.788;2023-04-25T11:45:10;6.05;;;1.80;;
55633;SDS011;41504;53.162;6.788;2023-04-25T11:47:39;4.70;;;1.60;;
55633;SDS011;41504;53.162;6.788;2023-04-25T11:50:06;4.13;;;1.35;;
55633;SDS011;41504;53.162;6.788;2023-04-25T11:55:05;9.05;;;1.80;;
55633;SDS011;41504;53.162;6.788;2023-04-25T11:57:38;8.88;;;1.73;;
55633;SDS011;41504;53.162;6.788;2023-04-25T12:00:15;7.70;;;1.90;;
55633;SDS011;41504;53.162;6.788;2023-04-25T12:02:43;10.50;;;1.90;;
55633;SDS011;41504;53.162;6.788;2023-04-25T12:05:13;8.43;;;1.83;;
55633;SDS011;41504;53.162;6.788;2023-04-25T12:07:43;8.57;;;2.10;;
55633;SDS011;41504;53.162;6.788;2023-04-25T12:10:13;8.70;;;2.65;;
55633;SDS011;41504;53.162;6.788;2023-04-25T12:12:44;6.07;;;1.80;;
55633;SDS011;41504;53.162;6.788;2023-04-25T12:15:14;7.25;;;1.92;;
55633;SDS011;41504;53.162;6.788;2023-04-25T12:17:48;8.32;;;2.17;;
55633;SDS011;41504;53.162;6.788;2023-04-25T12:20:26;7.88;;;2.45;;
55633;SDS011;41504;53.162;6.788;2023-04-25T12:22:52;8.57;;;2.33;;
55633;SDS011;41504;53.162;6.788;2023-04-25T12:28:23;8.85;;;1.88;;
55633;SDS011;41504;53.162;6.788;2023-04-25T12:33:35;6.65;;;1.75;;
55633;SDS011;41504;53.162;6.788;2023-04-25T12:36:11;6.70;;;1.50;;
55633;SDS011;41504;53.162;6.788;2023-04-25T12:38:39;9.98;;;1.92;;
55633;SDS011;41504;53.162;6.788;2023-04-25T12:41:06;8.52;;;1.90;;
55633;SDS011;41504;53.162;6.788;2023-04-25T12:43:32;7.28;;;1.92;;
55633;SDS011;41504;53.162;6.788;2023-04-25T12:46:01;7.18;;;1.90;;
55633;SDS011;41504;53.162;6.788;2023-04-25T12:48:27;8.13;;;1.60;;
55633;SDS011;41504;53.162;6.788;2023-04-25T12:50:56;8.98;;;2.17;;
55633;SDS011;41504;53.162;6.788;2023-04-25T12:53:22;7.97;;;2.30;;
55633;SDS011;41504;53.162;6.788;2023-04-25T12:55:51;6.47;;;1.42;;
55633;SDS011;41504;53.162;6.788;2023-04-25T12:58:20;5.82;;;1.67;;
55633;SDS011;41504;53.162;6.788;2023-04-25T13:00:45;4.80;;;1.45;;
55633;SDS011;41504;53.162;6.788;2023-04-25T13:03:11;9.73;;;1.70;;
55633;SDS011;41504;53.162;6.788;2023-04-25T13:05:37;7.78;;;1.60;;
55633;SDS011;41504;53.162;6.788;2023-04-25T13:08:04;7.03;;;1.55;;
55633;SDS011;41504;53.162;6.788;2023-04-25T13:10:30;7.95;;;1.58;;
55633;SDS011;41504;53.162;6.788;2023-04-25T13:12:56;8.88;;;1.80;;
55633;SDS011;41504;53.162;6.788;2023-04-25T13:15:22;7.25;;;1.90;;
55633;SDS011;41504;53.162;6.788;2023-04-25T13:17:48;6.18;;;1.55;;
55633;SDS011;41504;53.162;6.788;2023-04-25T13:20:14;8.23;;;1.52;;
55633;SDS011;41504;53.162;6.788;2023-04-25T13:22:41;11.02;;;1.90;;
55633;SDS011;41504;53.162;6.788;2023-04-25T13:25:08;7.47;;;1.90;;
55633;SDS011;41504;53.162;6.788;2023-04-25T13:27:37;8.52;;;1.83;;
55633;SDS011;41504;53.162;6.788;2023-04-25T13:30:04;9.02;;;2.03;;
55633;SDS011;41504;53.162;6.788;2023-04-25T13:32:34;6.90;;;1.98;;
55633;SDS011;41504;53.162;6.788;2023-04-25T13:35:08;8.93;;;1.88;;
55633;SDS011;41504;53.162;6.788;2023-04-25T13:37:35;6.22;;;1.30;;
55633;SDS011;41504;53.162;6.788;2023-04-25T13:40:02;6.63;;;1.70;;
55633;SDS011;41504;53.162;6.788;2023-04-25T13:42:39;10.07;;;1.85;;
55633;SDS011;41504;53.162;6.788;2023-04-25T13:45:06;7.00;;;1.60;;
55633;SDS011;41504;53.162;6.788;2023-04-25T13:47:41;9.13;;;1.85;;
55633;SDS011;41504;53.162;6.788;2023-04-25T13:50:10;10.80;;;2.20;;
55633;SDS011;41504;53.162;6.788;2023-04-25T13:52:36;8.52;;;2.40;;
55633;SDS011;41504;53.162;6.788;2023-04-25T13:55:02;8.15;;;2.17;;
55633;SDS011;41504;53.162;6.788;2023-04-25T13:57:32;8.90;;;1.88;;
55633;SDS011;41504;53.162;6.788;2023-04-25T13:59:59;8.00;;;1.73;;
55633;SDS011;41504;53.162;6.788;2023-04-25T14:02:29;8.18;;;1.70;;
55633;SDS011;41504;53.162;6.788;2023-04-25T14:04:55;8.65;;;2.17;;
55633;SDS011;41504;53.162;6.788;2023-04-25T14:07:21;8.65;;;1.70;;
55633;SDS011;41504;53.162;6.788;2023-04-25T14:09:47;7.57;;;1.55;;
55633;SDS011;41504;53.162;6.788;2023-04-25T14:12:13;8.50;;;1.90;;
55633;SDS011;41504;53.162;6.788;2023-04-25T14:14:38;6.65;;;1.55;;
55633;SDS011;41504;53.162;6.788;2023-04-25T14:17:04;5.75;;;1.63;;
55633;SDS011;41504;53.162;6.788;2023-04-25T14:19:31;7.95;;;1.85;;
55633;SDS011;41504;53.162;6.788;2023-04-25T14:21:57;8.05;;;1.58;;
55633;SDS011;41504;53.162;6.788;2023-04-25T14:24:23;5.50;;;1.50;;
55633;SDS011;41504;53.162;6.788;2023-04-25T14:26:48;8.38;;;1.60;;
55633;SDS011;41504;53.162;6.788;2023-04-25T14:29:14;4.25;;;1.42;;
55633;SDS011;41504;53.162;6.788;2023-04-25T14:31:40;7.65;;;1.88;;
55633;SDS011;41504;53.162;6.788;2023-04-25T14:34:06;6.15;;;1.80;;
55633;SDS011;41504;53.162;6.788;2023-04-25T14:36:32;8.13;;;2.30;;
55633;SDS011;41504;53.162;6.788;2023-04-25T14:39:01;10.18;;;2.00;;
55633;SDS011;41504;53.162;6.788;2023-04-25T14:41:28;7.97;;;1.70;;
55633;SDS011;41504;53.162;6.788;2023-04-25T14:43:53;5.93;;;1.88;;
55633;SDS011;41504;53.162;6.788;2023-04-25T14:46:20;7.00;;;2.03;;
55633;SDS011;41504;53.162;6.788;2023-04-25T14:48:47;5.30;;;1.45;;
55633;SDS011;41504;53.162;6.788;2023-04-25T14:51:13;8.30;;;2.03;;
55633;SDS011;41504;53.162;6.788;2023-04-25T14:53:41;7.25;;;1.60;;
55633;SDS011;41504;53.162;6.788;2023-04-25T14:56:09;6.10;;;1.70;;
55633;SDS011;41504;53.162;6.788;2023-04-25T14:58:35;7.90;;;1.80;;